»·PEaware :: DAL213 KPSP-KLAS

DAL213 :: KPSP-KLAS

FLIGHT INFORMATION

Flight Status: Arrived
Operator:
Delta Air Lines
More flights by this operator :: More flights under this callsign
Pilot: Nico L. (9332)
Aircraft: BOEING 737-800
(B738)
More flights by this aircraft type
Origin: KPSP Palm Springs Intl
United States
Destination: KLAS McCarran Intl
United States
More flights between these airports :: More routes between these airports
Route: +PSP V370 TNP KEPEC6
File this flight plan on PilotEdge
Remarks: Live Streaming on Twitch "DAL213" and YT
Altitude:
(Current/Filed)
17,000ft
Speed:
(Current/Filed)
400kts
Departed: 07-May-19 09:51 PM
Arrived: 07-May-19 10:32 PM
Distance/Time
Traveled:
151nm/0:41
Distance/Time
To Go:
Arrived

Flight Plot

Page will automatically refresh every two minutes.

Flight plan parsing failed; only flown route is shown


Map Options




Map Legend


Flown Route
Filed Route
Departure Airport
Arrival Airport
Navaid (VOR, NDB)
Fix

Horizontal Profiles

Position Reports

Time Latitude Longitude Heading Altitude Ground
Speed
07-May-19 21:25 33.823942 -116.506484 191 486ft 0kts
07-May-19 21:26 33.823942 -116.506484 191 486ft 0kts
07-May-19 21:27 33.823942 -116.506484 191 486ft 0kts
07-May-19 21:28 33.823942 -116.506484 191 486ft 0kts
07-May-19 21:29 33.823942 -116.506484 191 486ft 0kts
07-May-19 21:30 33.823942 -116.506484 191 486ft 0kts
07-May-19 21:31 33.823942 -116.506484 191 486ft 0kts
07-May-19 21:32 33.823942 -116.506484 191 486ft 0kts
07-May-19 21:33 33.823942 -116.506484 191 486ft 0kts
07-May-19 21:34 33.823942 -116.506484 191 486ft 0kts
07-May-19 21:35 33.823942 -116.506484 191 486ft 0kts
07-May-19 21:36 33.823942 -116.506484 191 486ft 0kts
07-May-19 21:37 33.823942 -116.506484 191 486ft 0kts
07-May-19 21:38 33.823942 -116.506484 191 486ft 0kts
07-May-19 21:39 33.823942 -116.506484 191 486ft 0kts
07-May-19 21:40 33.823942 -116.506484 191 486ft 0kts
07-May-19 21:41 33.823942 -116.506484 191 486ft 0kts
07-May-19 21:42 33.823942 -116.506484 191 486ft 0kts
07-May-19 21:43 33.823942 -116.506484 191 486ft 0kts
07-May-19 21:44 33.823942 -116.506484 191 486ft 0kts
07-May-19 21:45 33.823978 -116.506476 191 486ft 1kts
07-May-19 21:46 33.824574 -116.506645 139 486ft 0kts
07-May-19 21:47 33.824574 -116.506645 139 486ft 0kts
07-May-19 21:48 33.822543 -116.503387 142 486ft 21kts
07-May-19 21:49 33.818563 -116.498431 63 486ft 17kts
07-May-19 21:50 33.838029 -116.514900 324 1036ft 161kts
07-May-19 21:51 33.880097 -116.541036 11 3532ft 198kts
07-May-19 21:52 33.907800 -116.475592 72 5553ft 261kts
07-May-19 21:53 33.933011 -116.386521 69 8482ft 291kts
07-May-19 21:54 33.960203 -116.293003 68 11660ft 300kts
07-May-19 21:55 33.988541 -116.196254 67 14723ft 312kts
07-May-19 21:56 34.018179 -116.094729 66 17025ft 333kts
07-May-19 21:57 34.048242 -115.991247 66 17038ft 325kts
07-May-19 21:58 34.078122 -115.888083 66 17045ft 325kts
07-May-19 21:59 34.108576 -115.785780 59 17034ft 322kts
07-May-19 22:00 34.167803 -115.708293 39 17030ft 314kts
07-May-19 22:01 34.231558 -115.636018 39 17024ft 313kts
07-May-19 22:02 34.295204 -115.564182 39 17027ft 313kts
07-May-19 22:03 34.368253 -115.512021 16 17040ft 305kts
07-May-19 22:04 34.448959 -115.481056 357 17039ft 301kts
07-May-19 22:05 34.531825 -115.492285 350 17028ft 299kts
07-May-19 22:06 34.614300 -115.505429 350 17038ft 300kts
07-May-19 22:07 34.697077 -115.518842 350 17017ft 299kts
07-May-19 22:08 34.779378 -115.532222 350 17004ft 299kts
07-May-19 22:10 34.861645 -115.545638 350 16984ft 298kts
07-May-19 22:11 34.943957 -115.559090 350 16993ft 298kts
07-May-19 22:12 35.025996 -115.572504 350 16981ft 297kts
07-May-19 22:13 35.107813 -115.585906 350 17008ft 297kts
07-May-19 22:14 35.189542 -115.599332 350 17001ft 296kts
07-May-19 22:15 35.271332 -115.612792 350 17009ft 295kts
07-May-19 22:16 35.352768 -115.626222 350 16985ft 295kts
07-May-19 22:17 35.434174 -115.639679 350 16990ft 295kts
07-May-19 22:18 35.515742 -115.653192 350 17005ft 295kts
07-May-19 22:19 35.597102 -115.666707 350 17033ft 294kts
07-May-19 22:20 35.680416 -115.666744 23 16758ft 327kts
07-May-19 22:21 35.745622 -115.592700 31 15106ft 320kts
07-May-19 22:22 35.829440 -115.569686 356 12751ft 304kts
07-May-19 22:23 35.910980 -115.566150 358 11187ft 283kts
07-May-19 22:24 35.980117 -115.532646 57 10194ft 285kts
07-May-19 22:25 35.995883 -115.432619 84 9696ft 302kts
07-May-19 22:26 36.003712 -115.331855 86 9193ft 291kts
07-May-19 22:27 36.010172 -115.232629 85 7565ft 285kts
07-May-19 22:28 36.011176 -115.139463 97 5132ft 256kts
07-May-19 22:29 36.034570 -115.073276 13 3494ft 201kts
07-May-19 22:30 36.069400 -115.100788 296 2661ft 142kts
07-May-19 22:31 36.073682 -115.145763 271 2190ft 65kts
07-May-19 22:32 36.075465 -115.151384 329 2190ft 17kts
07-May-19 22:32 36.079125 -115.152015 359 2190ft 16kts
07-May-19 22:34 36.082466 -115.152128 337 2190ft 5kts
07-May-19 22:34 36.082595 -115.152194 336 2190ft 0kts
07-May-19 22:36 36.082595 -115.152194 336 2190ft 0kts
07-May-19 22:36 36.082595 -115.152194 336 2190ft 0kts
07-May-19 22:38 36.082595 -115.152194 336 2190ft 0kts
07-May-19 22:38 36.082595 -115.152194 336 2190ft 0kts
07-May-19 22:39 36.082595 -115.152194 336 2190ft 0kts

Navigation Log

Ident Type
Flight plan parsing failed, navigation log unavailable